sensor_id;sensor_type;location;lat;lon;timestamp;P1;durP1;ratioP1;P2;durP2;ratioP2
6185;SDS011;3126;52.738;8.316;2023-05-19T00:04:17;10.10;;;5.10;;
6185;SDS011;3126;52.738;8.316;2023-05-19T00:09:18;8.57;;;4.75;;
6185;SDS011;3126;52.738;8.316;2023-05-19T00:14:19;11.20;;;4.97;;
6185;SDS011;3126;52.738;8.316;2023-05-19T00:19:20;8.95;;;4.43;;
6185;SDS011;3126;52.738;8.316;2023-05-19T00:24:23;8.48;;;5.60;;
6185;SDS011;3126;52.738;8.316;2023-05-19T00:29:23;7.15;;;4.85;;
6185;SDS011;3126;52.738;8.316;2023-05-19T00:34:24;10.60;;;4.72;;
6185;SDS011;3126;52.738;8.316;2023-05-19T00:39:24;8.75;;;5.35;;
6185;SDS011;3126;52.738;8.316;2023-05-19T00:44:25;13.15;;;5.28;;
6185;SDS011;3126;52.738;8.316;2023-05-19T00:49:26;8.35;;;4.53;;
6185;SDS011;3126;52.738;8.316;2023-05-19T00:54:27;10.27;;;5.38;;
6185;SDS011;3126;52.738;8.316;2023-05-19T00:59:27;7.13;;;5.05;;
6185;SDS011;3126;52.738;8.316;2023-05-19T01:04:28;10.60;;;5.00;;
6185;SDS011;3126;52.738;8.316;2023-05-19T01:09:33;10.68;;;5.20;;
6185;SDS011;3126;52.738;8.316;2023-05-19T01:14:34;9.90;;;5.00;;
6185;SDS011;3126;52.738;8.316;2023-05-19T01:19:41;12.15;;;5.57;;
6185;SDS011;3126;52.738;8.316;2023-05-19T01:35:08;9.63;;;4.95;;
6185;SDS011;3126;52.738;8.316;2023-05-19T01:40:09;6.32;;;4.45;;
6185;SDS011;3126;52.738;8.316;2023-05-19T01:45:10;9.32;;;4.53;;
6185;SDS011;3126;52.738;8.316;2023-05-19T01:50:11;9.40;;;4.70;;
6185;SDS011;3126;52.738;8.316;2023-05-19T01:55:12;6.32;;;4.18;;
6185;SDS011;3126;52.738;8.316;2023-05-19T02:10:28;6.57;;;4.13;;
6185;SDS011;3126;52.738;8.316;2023-05-19T02:15:32;7.13;;;4.45;;
6185;SDS011;3126;52.738;8.316;2023-05-19T02:20:34;7.57;;;4.93;;
6185;SDS011;3126;52.738;8.316;2023-05-19T02:25:35;7.00;;;4.43;;
6185;SDS011;3126;52.738;8.316;2023-05-19T02:30:36;8.75;;;4.82;;
6185;SDS011;3126;52.738;8.316;2023-05-19T02:35:37;7.40;;;4.22;;
6185;SDS011;3126;52.738;8.316;2023-05-19T02:40:38;9.73;;;5.18;;
6185;SDS011;3126;52.738;8.316;2023-05-19T02:45:38;9.45;;;5.18;;
6185;SDS011;3126;52.738;8.316;2023-05-19T02:50:39;8.98;;;5.07;;
6185;SDS011;3126;52.738;8.316;2023-05-19T02:55:40;5.72;;;4.38;;
6185;SDS011;3126;52.738;8.316;2023-05-19T03:00:41;6.13;;;4.80;;
6185;SDS011;3126;52.738;8.316;2023-05-19T03:05:44;10.70;;;5.38;;
6185;SDS011;3126;52.738;8.316;2023-05-19T03:10:45;5.95;;;5.05;;
6185;SDS011;3126;52.738;8.316;2023-05-19T03:15:46;8.68;;;4.95;;
6185;SDS011;3126;52.738;8.316;2023-05-19T03:20:46;9.02;;;5.70;;
6185;SDS011;3126;52.738;8.316;2023-05-19T03:25:47;7.45;;;5.03;;
6185;SDS011;3126;52.738;8.316;2023-05-19T03:30:48;9.52;;;5.03;;
6185;SDS011;3126;52.738;8.316;2023-05-19T03:35:51;8.98;;;5.10;;
6185;SDS011;3126;52.738;8.316;2023-05-19T03:40:52;7.65;;;5.40;;
6185;SDS011;3126;52.738;8.316;2023-05-19T03:45:52;9.98;;;5.68;;
6185;SDS011;3126;52.738;8.316;2023-05-19T03:50:53;9.20;;;5.00;;
6185;SDS011;3126;52.738;8.316;2023-05-19T03:55:54;7.55;;;5.10;;
6185;SDS011;3126;52.738;8.316;2023-05-19T04:00:55;5.95;;;4.53;;
6185;SDS011;3126;52.738;8.316;2023-05-19T04:05:56;7.40;;;4.22;;
6185;SDS011;3126;52.738;8.316;2023-05-19T04:10:57;7.85;;;4.70;;
6185;SDS011;3126;52.738;8.316;2023-05-19T04:15:57;6.10;;;4.38;;
6185;SDS011;3126;52.738;8.316;2023-05-19T04:20:58;11.15;;;5.15;;
6185;SDS011;3126;52.738;8.316;2023-05-19T04:25:59;10.82;;;5.43;;
6185;SDS011;3126;52.738;8.316;2023-05-19T04:31:00;9.30;;;5.05;;
6185;SDS011;3126;52.738;8.316;2023-05-19T04:36:02;11.40;;;5.93;;
6185;SDS011;3126;52.738;8.316;2023-05-19T04:41:07;7.28;;;5.38;;
6185;SDS011;3126;52.738;8.316;2023-05-19T04:46:11;10.15;;;6.03;;
6185;SDS011;3126;52.738;8.316;2023-05-19T04:51:11;8.50;;;5.65;;
6185;SDS011;3126;52.738;8.316;2023-05-19T04:56:13;8.98;;;6.32;;
6185;SDS011;3126;52.738;8.316;2023-05-19T05:01:14;11.85;;;6.22;;
6185;SDS011;3126;52.738;8.316;2023-05-19T05:06:15;11.80;;;5.78;;
6185;SDS011;3126;52.738;8.316;2023-05-19T05:11:16;12.13;;;5.80;;
6185;SDS011;3126;52.738;8.316;2023-05-19T05:16:17;8.38;;;5.43;;
6185;SDS011;3126;52.738;8.316;2023-05-19T05:21:18;7.93;;;5.80;;
6185;SDS011;3126;52.738;8.316;2023-05-19T05:26:20;10.38;;;5.50;;
6185;SDS011;3126;52.738;8.316;2023-05-19T05:31:23;14.30;;;6.45;;
6185;SDS011;3126;52.738;8.316;2023-05-19T05:36:24;9.00;;;5.28;;
6185;SDS011;3126;52.738;8.316;2023-05-19T05:41:25;8.70;;;5.97;;
6185;SDS011;3126;52.738;8.316;2023-05-19T05:46:28;8.20;;;6.10;;
6185;SDS011;3126;52.738;8.316;2023-05-19T05:51:29;10.45;;;5.95;;
6185;SDS011;3126;52.738;8.316;2023-05-19T05:56:32;10.35;;;5.60;;
6185;SDS011;3126;52.738;8.316;2023-05-19T06:01:33;10.25;;;5.55;;
6185;SDS011;3126;52.738;8.316;2023-05-19T06:06:37;7.63;;;4.95;;
6185;SDS011;3126;52.738;8.316;2023-05-19T06:11:38;11.20;;;5.45;;
6185;SDS011;3126;52.738;8.316;2023-05-19T06:16:39;7.35;;;5.70;;
6185;SDS011;3126;52.738;8.316;2023-05-19T06:21:39;10.18;;;5.05;;
6185;SDS011;3126;52.738;8.316;2023-05-19T06:26:42;7.85;;;5.32;;
6185;SDS011;3126;52.738;8.316;2023-05-19T06:31:42;8.57;;;5.07;;
6185;SDS011;3126;52.738;8.316;2023-05-19T06:36:43;11.25;;;5.80;;
6185;SDS011;3126;52.738;8.316;2023-05-19T06:41:44;7.32;;;4.32;;
6185;SDS011;3126;52.738;8.316;2023-05-19T06:46:45;6.65;;;4.85;;
6185;SDS011;3126;52.738;8.316;2023-05-19T06:51:46;6.65;;;4.68;;
6185;SDS011;3126;52.738;8.316;2023-05-19T06:56:48;8.05;;;4.85;;
6185;SDS011;3126;52.738;8.316;2023-05-19T07:01:49;9.85;;;5.18;;
6185;SDS011;3126;52.738;8.316;2023-05-19T07:06:50;9.40;;;4.95;;
6185;SDS011;3126;52.738;8.316;2023-05-19T07:11:51;9.82;;;5.00;;
6185;SDS011;3126;52.738;8.316;2023-05-19T07:16:53;8.02;;;5.50;;
6185;SDS011;3126;52.738;8.316;2023-05-19T07:21:54;8.13;;;5.20;;
6185;SDS011;3126;52.738;8.316;2023-05-19T07:26:56;7.20;;;4.53;;
6185;SDS011;3126;52.738;8.316;2023-05-19T07:31:57;10.93;;;5.10;;
6185;SDS011;3126;52.738;8.316;2023-05-19T07:36:58;7.57;;;4.45;;
6185;SDS011;3126;52.738;8.316;2023-05-19T07:41:59;8.70;;;5.28;;
6185;SDS011;3126;52.738;8.316;2023-05-19T07:46:59;8.60;;;5.20;;
6185;SDS011;3126;52.738;8.316;2023-05-19T07:52:00;7.72;;;4.70;;
6185;SDS011;3126;52.738;8.316;2023-05-19T07:57:02;6.72;;;4.47;;
6185;SDS011;3126;52.738;8.316;2023-05-19T08:02:03;11.55;;;4.93;;
6185;SDS011;3126;52.738;8.316;2023-05-19T08:07:03;6.55;;;4.57;;
6185;SDS011;3126;52.738;8.316;2023-05-19T08:12:04;7.55;;;4.15;;
6185;SDS011;3126;52.738;8.316;2023-05-19T08:17:05;5.55;;;4.22;;
6185;SDS011;3126;52.738;8.316;2023-05-19T08:22:05;8.77;;;4.28;;
6185;SDS011;3126;52.738;8.316;2023-05-19T08:27:06;5.93;;;3.78;;
6185;SDS011;3126;52.738;8.316;2023-05-19T08:32:09;7.25;;;4.10;;
6185;SDS011;3126;52.738;8.316;2023-05-19T08:37:09;6.88;;;4.25;;
6185;SDS011;3126;52.738;8.316;2023-05-19T08:42:10;6.72;;;3.67;;
6185;SDS011;3126;52.738;8.316;2023-05-19T08:47:11;5.70;;;3.53;;
6185;SDS011;3126;52.738;8.316;2023-05-19T08:57:16;5.85;;;3.55;;
6185;SDS011;3126;52.738;8.316;2023-05-19T09:02:17;7.78;;;3.47;;
6185;SDS011;3126;52.738;8.316;2023-05-19T09:07:19;3.63;;;2.83;;
6185;SDS011;3126;52.738;8.316;2023-05-19T09:17:22;4.80;;;3.13;;
6185;SDS011;3126;52.738;8.316;2023-05-19T09:22:24;7.97;;;3.05;;
6185;SDS011;3126;52.738;8.316;2023-05-19T09:27:25;5.20;;;2.75;;
6185;SDS011;3126;52.738;8.316;2023-05-19T09:32:26;5.07;;;2.40;;
6185;SDS011;3126;52.738;8.316;2023-05-19T09:37:26;3.45;;;2.10;;
6185;SDS011;3126;52.738;8.316;2023-05-19T09:42:27;7.30;;;2.58;;
6185;SDS011;3126;52.738;8.316;2023-05-19T09:47:35;6.03;;;2.65;;
6185;SDS011;3126;52.738;8.316;2023-05-19T09:52:43;7.13;;;2.40;;
6185;SDS011;3126;52.738;8.316;2023-05-19T09:57:43;4.85;;;2.33;;
6185;SDS011;3126;52.738;8.316;2023-05-19T10:02:44;4.53;;;2.10;;
6185;SDS011;3126;52.738;8.316;2023-05-19T10:07:46;3.72;;;2.20;;
6185;SDS011;3126;52.738;8.316;2023-05-19T10:12:50;4.05;;;1.77;;
6185;SDS011;3126;52.738;8.316;2023-05-19T10:17:51;4.63;;;1.60;;
6185;SDS011;3126;52.738;8.316;2023-05-19T10:22:52;2.95;;;1.80;;
6185;SDS011;3126;52.738;8.316;2023-05-19T10:28:04;4.72;;;2.13;;
6185;SDS011;3126;52.738;8.316;2023-05-19T10:33:12;9.82;;;4.07;;
6185;SDS011;3126;52.738;8.316;2023-05-19T10:38:20;7.40;;;2.50;;
6185;SDS011;3126;52.738;8.316;2023-05-19T10:49:20;3.90;;;1.73;;
6185;SDS011;3126;52.738;8.316;2023-05-19T10:54:41;2.75;;;1.65;;
6185;SDS011;3126;52.738;8.316;2023-05-19T10:59:45;6.40;;;1.98;;
6185;SDS011;3126;52.738;8.316;2023-05-19T11:04:46;4.38;;;2.30;;
6185;SDS011;3126;52.738;8.316;2023-05-19T11:09:51;5.85;;;1.85;;
6185;SDS011;3126;52.738;8.316;2023-05-19T11:14:52;8.70;;;1.92;;
6185;SDS011;3126;52.738;8.316;2023-05-19T11:19:54;3.55;;;1.85;;
6185;SDS011;3126;52.738;8.316;2023-05-19T11:24:56;4.00;;;1.75;;
6185;SDS011;3126;52.738;8.316;2023-05-19T11:30:08;3.35;;;1.48;;
6185;SDS011;3126;52.738;8.316;2023-05-19T11:35:19;4.45;;;1.95;;
6185;SDS011;3126;52.738;8.316;2023-05-19T11:40:21;5.15;;;1.85;;
6185;SDS011;3126;52.738;8.316;2023-05-19T11:45:23;3.15;;;1.80;;
6185;SDS011;3126;52.738;8.316;2023-05-19T11:55:25;5.88;;;1.85;;
6185;SDS011;3126;52.738;8.316;2023-05-19T12:00:26;2.42;;;1.80;;
6185;SDS011;3126;52.738;8.316;2023-05-19T12:05:28;3.15;;;1.55;;
6185;SDS011;3126;52.738;8.316;2023-05-19T12:10:30;5.03;;;1.80;;
6185;SDS011;3126;52.738;8.316;2023-05-19T12:15:32;3.65;;;1.55;;
6185;SDS011;3126;52.738;8.316;2023-05-19T12:20:33;2.40;;;1.90;;
6185;SDS011;3126;52.738;8.316;2023-05-19T12:25:34;3.50;;;1.40;;
6185;SDS011;3126;52.738;8.316;2023-05-19T12:30:35;3.92;;;1.50;;
6185;SDS011;3126;52.738;8.316;2023-05-19T12:35:35;3.97;;;1.65;;
6185;SDS011;3126;52.738;8.316;2023-05-19T12:40:36;3.15;;;1.35;;
6185;SDS011;3126;52.738;8.316;2023-05-19T12:45:38;1.95;;;1.10;;
6185;SDS011;3126;52.738;8.316;2023-05-19T12:50:41;3.97;;;1.10;;
6185;SDS011;3126;52.738;8.316;2023-05-19T12:55:44;3.65;;;1.20;;
6185;SDS011;3126;52.738;8.316;2023-05-19T13:00:45;3.38;;;1.40;;
6185;SDS011;3126;52.738;8.316;2023-05-19T13:15:49;5.97;;;1.40;;
6185;SDS011;3126;52.738;8.316;2023-05-19T13:20:50;3.63;;;2.40;;
6185;SDS011;3126;52.738;8.316;2023-05-19T13:25:51;2.08;;;1.17;;
6185;SDS011;3126;52.738;8.316;2023-05-19T13:30:52;4.40;;;1.75;;
6185;SDS011;3126;52.738;8.316;2023-05-19T13:35:54;1.27;;;1.15;;
6185;SDS011;3126;52.738;8.316;2023-05-19T13:40:55;2.22;;;1.60;;
6185;SDS011;3126;52.738;8.316;2023-05-19T13:45:56;3.10;;;1.50;;
6185;SDS011;3126;52.738;8.316;2023-05-19T13:50:56;1.90;;;1.30;;
6185;SDS011;3126;52.738;8.316;2023-05-19T13:55:58;2.22;;;1.17;;
6185;SDS011;3126;52.738;8.316;2023-05-19T14:00:59;3.47;;;1.02;;
6185;SDS011;3126;52.738;8.316;2023-05-19T14:05:59;3.08;;;1.40;;
6185;SDS011;3126;52.738;8.316;2023-05-19T14:11:00;3.42;;;1.60;;
6185;SDS011;3126;52.738;8.316;2023-05-19T14:16:01;3.00;;;1.70;;
6185;SDS011;3126;52.738;8.316;2023-05-19T14:21:01;2.83;;;2.10;;
6185;SDS011;3126;52.738;8.316;2023-05-19T14:26:02;5.65;;;1.70;;
6185;SDS011;3126;52.738;8.316;2023-05-19T14:31:03;3.58;;;1.70;;
6185;SDS011;3126;52.738;8.316;2023-05-19T14:36:03;3.42;;;1.50;;
6185;SDS011;3126;52.738;8.316;2023-05-19T14:41:06;7.53;;;3.22;;
6185;SDS011;3126;52.738;8.316;2023-05-19T14:46:06;1.48;;;1.15;;
6185;SDS011;3126;52.738;8.316;2023-05-19T14:51:07;4.47;;;1.30;;
6185;SDS011;3126;52.738;8.316;2023-05-19T14:56:08;3.13;;;1.40;;
6185;SDS011;3126;52.738;8.316;2023-05-19T15:01:08;5.28;;;1.30;;
6185;SDS011;3126;52.738;8.316;2023-05-19T15:06:09;3.10;;;1.65;;
6185;SDS011;3126;52.738;8.316;2023-05-19T15:11:10;9.18;;;1.70;;
6185;SDS011;3126;52.738;8.316;2023-05-19T15:16:10;3.97;;;2.00;;
6185;SDS011;3126;52.738;8.316;2023-05-19T15:21:11;3.42;;;1.38;;
6185;SDS011;3126;52.738;8.316;2023-05-19T15:26:11;2.90;;;1.58;;
6185;SDS011;3126;52.738;8.316;2023-05-19T15:31:12;2.70;;;1.42;;
6185;SDS011;3126;52.738;8.316;2023-05-19T15:36:13;2.00;;;1.73;;
6185;SDS011;3126;52.738;8.316;2023-05-19T15:41:15;2.38;;;1.55;;
6185;SDS011;3126;52.738;8.316;2023-05-19T15:46:15;2.28;;;1.25;;
6185;SDS011;3126;52.738;8.316;2023-05-19T15:51:18;3.00;;;1.33;;
6185;SDS011;3126;52.738;8.316;2023-05-19T15:56:19;3.83;;;1.58;;
6185;SDS011;3126;52.738;8.316;2023-05-19T16:01:20;2.85;;;1.65;;
6185;SDS011;3126;52.738;8.316;2023-05-19T16:06:21;3.00;;;2.28;;
6185;SDS011;3126;52.738;8.316;2023-05-19T16:11:21;2.10;;;1.83;;
6185;SDS011;3126;52.738;8.316;2023-05-19T16:16:22;2.38;;;1.38;;
6185;SDS011;3126;52.738;8.316;2023-05-19T16:21:23;3.40;;;1.50;;
6185;SDS011;3126;52.738;8.316;2023-05-19T16:26:23;1.30;;;1.15;;
6185;SDS011;3126;52.738;8.316;2023-05-19T16:31:25;2.35;;;1.50;;
6185;SDS011;3126;52.738;8.316;2023-05-19T16:36:25;1.92;;;1.50;;
6185;SDS011;3126;52.738;8.316;2023-05-19T16:41:26;2.53;;;1.35;;
6185;SDS011;3126;52.738;8.316;2023-05-19T16:46:26;1.80;;;1.27;;
6185;SDS011;3126;52.738;8.316;2023-05-19T16:51:27;3.15;;;1.55;;
6185;SDS011;3126;52.738;8.316;2023-05-19T16:56:27;4.88;;;1.67;;
6185;SDS011;3126;52.738;8.316;2023-05-19T17:01:28;2.03;;;1.83;;
6185;SDS011;3126;52.738;8.316;2023-05-19T17:06:28;2.35;;;1.52;;
6185;SDS011;3126;52.738;8.316;2023-05-19T17:11:30;1.92;;;1.60;;
6185;SDS011;3126;52.738;8.316;2023-05-19T17:16:30;3.03;;;1.02;;
6185;SDS011;3126;52.738;8.316;2023-05-19T17:21:31;6.97;;;5.45;;
6185;SDS011;3126;52.738;8.316;2023-05-19T17:26:32;6.85;;;5.50;;
6185;SDS011;3126;52.738;8.316;2023-05-19T17:31:33;3.17;;;2.00;;
6185;SDS011;3126;52.738;8.316;2023-05-19T17:36:33;4.25;;;1.80;;
6185;SDS011;3126;52.738;8.316;2023-05-19T17:41:34;2.40;;;1.88;;
6185;SDS011;3126;52.738;8.316;2023-05-19T17:46:35;1.83;;;1.35;;
6185;SDS011;3126;52.738;8.316;2023-05-19T17:56:39;2.80;;;1.50;;
6185;SDS011;3126;52.738;8.316;2023-05-19T18:01:43;4.30;;;1.77;;
6185;SDS011;3126;52.738;8.316;2023-05-19T18:06:44;2.92;;;1.58;;
6185;SDS011;3126;52.738;8.316;2023-05-19T18:11:46;2.63;;;1.23;;
6185;SDS011;3126;52.738;8.316;2023-05-19T18:16:46;2.15;;;1.38;;
6185;SDS011;3126;52.738;8.316;2023-05-19T18:21:49;2.05;;;1.30;;
6185;SDS011;3126;52.738;8.316;2023-05-19T18:26:49;2.75;;;1.50;;
6185;SDS011;3126;52.738;8.316;2023-05-19T18:31:50;4.40;;;1.98;;
6185;SDS011;3126;52.738;8.316;2023-05-19T18:36:50;2.97;;;1.63;;
6185;SDS011;3126;52.738;8.316;2023-05-19T18:41:51;1.73;;;1.30;;
6185;SDS011;3126;52.738;8.316;2023-05-19T18:46:52;4.63;;;1.73;;
6185;SDS011;3126;52.738;8.316;2023-05-19T18:51:53;3.22;;;2.10;;
6185;SDS011;3126;52.738;8.316;2023-05-19T18:56:54;2.33;;;1.58;;
6185;SDS011;3126;52.738;8.316;2023-05-19T19:01:55;3.00;;;1.33;;
6185;SDS011;3126;52.738;8.316;2023-05-19T19:06:56;2.13;;;1.35;;
6185;SDS011;3126;52.738;8.316;2023-05-19T19:11:58;2.05;;;1.50;;
6185;SDS011;3126;52.738;8.316;2023-05-19T19:16:59;2.10;;;1.70;;
6185;SDS011;3126;52.738;8.316;2023-05-19T19:22:00;5.00;;;1.90;;
6185;SDS011;3126;52.738;8.316;2023-05-19T19:27:01;1.63;;;1.52;;
6185;SDS011;3126;52.738;8.316;2023-05-19T19:32:01;1.55;;;1.38;;
6185;SDS011;3126;52.738;8.316;2023-05-19T19:37:02;3.65;;;1.80;;
6185;SDS011;3126;52.738;8.316;2023-05-19T19:52:33;3.78;;;1.75;;
6185;SDS011;3126;52.738;8.316;2023-05-19T19:57:34;5.32;;;1.83;;
6185;SDS011;3126;52.738;8.316;2023-05-19T20:02:34;3.92;;;1.70;;
6185;SDS011;3126;52.738;8.316;2023-05-19T20:07:38;5.22;;;2.10;;
6185;SDS011;3126;52.738;8.316;2023-05-19T20:12:39;3.47;;;1.88;;
6185;SDS011;3126;52.738;8.316;2023-05-19T20:17:39;5.15;;;1.80;;
6185;SDS011;3126;52.738;8.316;2023-05-19T20:22:40;2.42;;;1.90;;
6185;SDS011;3126;52.738;8.316;2023-05-19T20:27:43;3.97;;;2.40;;
6185;SDS011;3126;52.738;8.316;2023-05-19T20:32:43;2.30;;;2.08;;
6185;SDS011;3126;52.738;8.316;2023-05-19T20:37:45;2.85;;;2.28;;
6185;SDS011;3126;52.738;8.316;2023-05-19T20:42:46;3.70;;;1.98;;
6185;SDS011;3126;52.738;8.316;2023-05-19T20:47:51;4.10;;;1.90;;
6185;SDS011;3126;52.738;8.316;2023-05-19T20:52:52;5.60;;;2.10;;
6185;SDS011;3126;52.738;8.316;2023-05-19T20:57:52;5.57;;;2.15;;
6185;SDS011;3126;52.738;8.316;2023-05-19T21:02:53;7.47;;;2.67;;
6185;SDS011;3126;52.738;8.316;2023-05-19T21:07:53;2.65;;;2.08;;
6185;SDS011;3126;52.738;8.316;2023-05-19T21:12:54;4.55;;;1.90;;
6185;SDS011;3126;52.738;8.316;2023-05-19T21:17:57;4.93;;;2.60;;
6185;SDS011;3126;52.738;8.316;2023-05-19T21:22:57;4.85;;;2.70;;
6185;SDS011;3126;52.738;8.316;2023-05-19T21:27:58;2.85;;;2.08;;
6185;SDS011;3126;52.738;8.316;2023-05-19T21:32:58;4.85;;;2.58;;
6185;SDS011;3126;52.738;8.316;2023-05-19T21:37:59;4.25;;;1.92;;
6185;SDS011;3126;52.738;8.316;2023-05-19T21:42:59;6.50;;;2.00;;
6185;SDS011;3126;52.738;8.316;2023-05-19T21:48:00;4.10;;;1.98;;
6185;SDS011;3126;52.738;8.316;2023-05-19T21:53:00;4.43;;;2.13;;
6185;SDS011;3126;52.738;8.316;2023-05-19T21:58:01;4.55;;;2.40;;
6185;SDS011;3126;52.738;8.316;2023-05-19T22:03:02;4.60;;;1.85;;
6185;SDS011;3126;52.738;8.316;2023-05-19T22:08:03;4.18;;;1.90;;
6185;SDS011;3126;52.738;8.316;2023-05-19T22:13:03;4.70;;;2.38;;
6185;SDS011;3126;52.738;8.316;2023-05-19T22:18:04;3.47;;;2.05;;
6185;SDS011;3126;52.738;8.316;2023-05-19T22:23:05;3.88;;;2.05;;
6185;SDS011;3126;52.738;8.316;2023-05-19T22:28:06;3.25;;;1.95;;
6185;SDS011;3126;52.738;8.316;2023-05-19T22:33:08;2.47;;;1.83;;
6185;SDS011;3126;52.738;8.316;2023-05-19T22:38:11;4.75;;;1.88;;
6185;SDS011;3126;52.738;8.316;2023-05-19T22:43:12;5.10;;;2.22;;
6185;SDS011;3126;52.738;8.316;2023-05-19T22:48:12;3.85;;;1.85;;
6185;SDS011;3126;52.738;8.316;2023-05-19T22:53:13;3.67;;;2.20;;
6185;SDS011;3126;52.738;8.316;2023-05-19T22:58:14;4.63;;;1.92;;
6185;SDS011;3126;52.738;8.316;2023-05-19T23:03:14;2.80;;;2.10;;
6185;SDS011;3126;52.738;8.316;2023-05-19T23:08:15;3.65;;;2.17;;
6185;SDS011;3126;52.738;8.316;2023-05-19T23:13:16;3.47;;;2.05;;
6185;SDS011;3126;52.738;8.316;2023-05-19T23:18:17;2.10;;;1.73;;
6185;SDS011;3126;52.738;8.316;2023-05-19T23:23:18;3.50;;;2.00;;
6185;SDS011;3126;52.738;8.316;2023-05-19T23:28:19;3.00;;;2.60;;
6185;SDS011;3126;52.738;8.316;2023-05-19T23:33:20;4.95;;;2.03;;
6185;SDS011;3126;52.738;8.316;2023-05-19T23:38:21;5.35;;;1.98;;
6185;SDS011;3126;52.738;8.316;2023-05-19T23:43:22;4.85;;;2.58;;
6185;SDS011;3126;52.738;8.316;2023-05-19T23:48:23;8.45;;;1.95;;
6185;SDS011;3126;52.738;8.316;2023-05-19T23:53:24;1.75;;;1.60;;
6185;SDS011;3126;52.738;8.316;2023-05-19T23:58:25;3.25;;;1.63;;
